Time;durP1;ratioP1;P1;durP2;ratioP2;P2;SDS_P1;SDS_P2;PMS_P1;PMS_P2;Temp;Humidity;BMP_temperature;BMP_pressure;BME280_temperature;BME280_humidity;BME280_pressure;Samples;Min_cycle;Max_cycle;Signal;HPM_P1;HPM_P2
2021/10/22 00:00:14;;;;;;;14.70;2.17;;;8.20;99.90;;;;;;5040439;28;25111;-70
2021/10/22 00:02:40;;;;;;;13.00;1.88;;;8.10;99.90;;;;;;5040153;28;25156;-70
2021/10/22 00:05:06;;;;;;;11.63;2.70;;;8.20;99.90;;;;;;5043368;28;25148;-70
2021/10/22 00:07:32;;;;;;;14.52;2.35;;;8.20;99.90;;;;;;5014159;28;25071;-68
2021/10/22 00:09:57;;;;;;;15.10;2.40;;;8.10;99.90;;;;;;5045091;28;25052;-69
2021/10/22 00:12:23;;;;;;;12.52;2.10;;;8.10;99.90;;;;;;5033867;28;25163;-70
2021/10/22 00:14:51;;;;;;;10.70;2.17;;;8.10;99.90;;;;;;5032559;28;25058;-72
2021/10/22 00:17:17;;;;;;;11.75;2.10;;;8.10;99.90;;;;;;5032448;28;25070;-70
2021/10/22 00:19:43;;;;;;;10.63;1.75;;;8.00;99.90;;;;;;5028546;28;25058;-69
2021/10/22 00:22:08;;;;;;;13.90;2.55;;;8.00;99.90;;;;;;5046452;28;25068;-71
2021/10/22 00:24:34;;;;;;;11.55;2.30;;;8.00;99.90;;;;;;5044736;28;25090;-71
2021/10/22 00:26:59;;;;;;;9.40;2.55;;;7.90;99.90;;;;;;5033771;28;25078;-70
2021/10/22 00:29:25;;;;;;;11.60;1.85;;;7.90;99.90;;;;;;5039419;28;25055;-70
2021/10/22 00:31:51;;;;;;;8.13;2.08;;;8.00;99.90;;;;;;5040627;28;25099;-75
2021/10/22 00:34:16;;;;;;;12.60;1.63;;;8.00;99.90;;;;;;5048262;28;25073;-70
2021/10/22 00:36:42;;;;;;;8.13;2.13;;;8.00;99.90;;;;;;5039470;28;25086;-70
2021/10/22 00:39:09;;;;;;;11.10;2.30;;;8.00;99.90;;;;;;5043441;28;25060;-72
2021/10/22 00:41:36;;;;;;;19.02;2.72;;;7.90;99.90;;;;;;5026337;28;25084;-73
2021/10/22 00:44:01;;;;;;;10.90;2.17;;;7.80;99.90;;;;;;5045089;28;25144;-71
2021/10/22 00:46:32;;;;;;;10.23;2.60;;;7.90;99.90;;;;;;5039141;28;25083;-70
2021/10/22 00:48:58;;;;;;;11.77;2.42;;;7.90;99.90;;;;;;5031337;28;25152;-70
2021/10/22 00:51:26;;;;;;;10.45;2.30;;;7.80;99.90;;;;;;5042941;28;25114;-70
2021/10/22 00:53:51;;;;;;;10.95;2.70;;;7.80;99.90;;;;;;5018826;28;25077;-71
2021/10/22 00:56:17;;;;;;;11.25;2.03;;;7.90;99.90;;;;;;5036294;28;25063;-72
2021/10/22 00:58:42;;;;;;;11.50;2.10;;;7.80;99.90;;;;;;5050760;28;25061;-71
2021/10/22 01:01:09;;;;;;;15.13;2.17;;;7.90;99.90;;;;;;5029778;28;25104;-72
2021/10/22 01:03:35;;;;;;;10.18;2.70;;;7.90;99.90;;;;;;5045505;28;25089;-68
2021/10/22 01:06:01;;;;;;;14.90;1.80;;;7.90;99.90;;;;;;5022629;28;25100;-69
2021/10/22 01:08:30;;;;;;;7.47;1.67;;;7.90;99.90;;;;;;5044123;28;25143;-70
2021/10/22 01:10:56;;;;;;;14.23;2.78;;;8.00;99.90;;;;;;5042008;28;25148;-69
2021/10/22 01:13:21;;;;;;;16.38;2.20;;;8.00;99.90;;;;;;5050010;28;25116;-70
2021/10/22 01:15:47;;;;;;;13.82;2.67;;;8.00;99.90;;;;;;5071465;22;25067;-70
2021/10/22 01:18:13;;;;;;;12.32;2.08;;;8.10;99.90;;;;;;5033281;28;25119;-71
2021/10/22 01:20:39;;;;;;;17.63;3.20;;;8.00;99.90;;;;;;5043347;28;25109;-73
2021/10/22 01:23:05;;;;;;;16.35;2.58;;;7.90;99.90;;;;;;5046259;28;25088;-70
2021/10/22 01:25:32;;;;;;;12.45;2.15;;;7.90;99.90;;;;;;5042830;28;25102;-71
2021/10/22 01:27:57;;;;;;;7.47;2.03;;;7.90;99.90;;;;;;5053499;28;25073;-70
2021/10/22 01:30:27;;;;;;;16.20;2.88;;;7.90;99.90;;;;;;5067270;28;25119;-71
2021/10/22 01:32:56;;;;;;;11.00;2.10;;;7.90;99.90;;;;;;5066143;28;25048;-69
2021/10/22 01:35:22;;;;;;;10.25;2.28;;;7.90;99.90;;;;;;5057412;28;25108;-70
2021/10/22 01:37:48;;;;;;;12.02;2.67;;;8.00;99.90;;;;;;5051853;28;25094;-69
2021/10/22 01:40:14;;;;;;;12.60;2.65;;;8.00;99.90;;;;;;5053129;28;25052;-69
2021/10/22 01:42:40;;;;;;;11.05;1.98;;;8.00;99.90;;;;;;5062196;28;25081;-71
2021/10/22 01:45:07;;;;;;;12.32;2.33;;;8.00;99.90;;;;;;5059762;28;25068;-71
2021/10/22 01:47:32;;;;;;;13.25;2.85;;;8.00;99.90;;;;;;5058069;28;25097;-69
2021/10/22 01:49:58;;;;;;;15.90;2.70;;;8.00;99.90;;;;;;5063965;28;25071;-70
2021/10/22 01:52:24;;;;;;;10.40;3.03;;;8.10;99.90;;;;;;5061210;28;25102;-68
2021/10/22 01:54:49;;;;;;;14.75;2.53;;;8.10;99.90;;;;;;5064163;28;25066;-69
2021/10/22 01:57:15;;;;;;;11.60;2.65;;;8.10;99.90;;;;;;5043316;28;25107;-71
2021/10/22 01:59:41;;;;;;;8.00;2.22;;;8.10;99.90;;;;;;5060288;28;25079;-71
2021/10/22 02:02:07;;;;;;;13.43;2.45;;;8.20;99.90;;;;;;5063120;28;25075;-76
2021/10/22 02:04:33;;;;;;;14.00;2.38;;;8.20;99.90;;;;;;5044449;28;25167;-71
2021/10/22 02:06:59;;;;;;;15.82;2.70;;;8.20;99.90;;;;;;5059657;28;25047;-70
2021/10/22 02:09:25;;;;;;;16.80;2.20;;;8.20;99.90;;;;;;5063404;28;25064;-71
2021/10/22 02:11:51;;;;;;;16.35;2.67;;;8.30;99.90;;;;;;5064624;28;25075;-69
2021/10/22 02:14:16;;;;;;;13.73;2.47;;;8.30;99.90;;;;;;5048457;28;25066;-70
2021/10/22 02:16:43;;;;;;;12.70;2.65;;;8.30;99.90;;;;;;5060765;28;26257;-71
2021/10/22 02:19:10;;;;;;;18.65;2.78;;;8.30;99.90;;;;;;5044481;28;25053;-69
2021/10/22 02:21:35;;;;;;;9.88;2.80;;;8.30;99.90;;;;;;5049690;28;25145;-71
2021/10/22 02:24:01;;;;;;;14.70;2.90;;;8.30;99.90;;;;;;5065856;28;25071;-73
2021/10/22 02:26:27;;;;;;;15.23;2.60;;;8.30;99.90;;;;;;5040990;28;25161;-70
2021/10/22 02:28:52;;;;;;;16.58;2.85;;;8.30;99.90;;;;;;5065039;28;25168;-71
2021/10/22 02:31:19;;;;;;;13.15;3.17;;;8.30;99.90;;;;;;5042842;28;25048;-68
2021/10/22 02:33:46;;;;;;;17.85;2.50;;;8.30;99.90;;;;;;5047086;28;25081;-69
2021/10/22 02:36:11;;;;;;;10.27;2.30;;;8.30;99.90;;;;;;5068939;28;25086;-70
2021/10/22 02:38:37;;;;;;;23.15;3.28;;;8.30;99.90;;;;;;5066542;28;25093;-71
2021/10/22 02:41:02;;;;;;;17.83;3.08;;;8.30;99.90;;;;;;5057470;28;25084;-68
2021/10/22 02:43:28;;;;;;;16.10;2.53;;;8.30;99.90;;;;;;5060384;28;25058;-70
2021/10/22 02:45:54;;;;;;;11.10;2.70;;;8.30;99.90;;;;;;5065900;28;25146;-71
2021/10/22 02:48:19;;;;;;;16.50;2.85;;;8.40;99.90;;;;;;5065785;28;25083;-74
2021/10/22 02:50:45;;;;;;;14.38;2.60;;;8.40;99.90;;;;;;5039425;28;25064;-69
2021/10/22 02:53:11;;;;;;;16.55;3.22;;;8.40;99.90;;;;;;5062100;28;25144;-69
2021/10/22 02:55:37;;;;;;;18.60;3.03;;;8.40;99.90;;;;;;5062502;28;25071;-69
2021/10/22 02:58:02;;;;;;;19.67;3.20;;;8.50;99.90;;;;;;5066112;28;25063;-70
2021/10/22 03:00:28;;;;;;;17.75;2.95;;;8.40;99.90;;;;;;5064337;28;25143;-68
2021/10/22 03:02:54;;;;;;;18.90;2.88;;;8.40;99.90;;;;;;5063805;28;25054;-71
2021/10/22 03:05:20;;;;;;;15.02;3.97;;;8.40;99.90;;;;;;5064891;28;25078;-70
2021/10/22 03:07:46;;;;;;;19.75;3.03;;;8.40;99.90;;;;;;5067473;28;25064;-70
2021/10/22 03:10:11;;;;;;;12.77;2.97;;;8.40;99.90;;;;;;5047692;28;25063;-67
2021/10/22 03:12:37;;;;;;;14.25;3.03;;;8.50;99.90;;;;;;5047933;28;25073;-70
2021/10/22 03:15:05;;;;;;;23.00;3.40;;;8.50;99.90;;;;;;5063857;28;25081;-72
2021/10/22 03:17:30;;;;;;;19.05;3.15;;;8.60;99.90;;;;;;5051565;28;25076;-68
2021/10/22 03:19:56;;;;;;;16.23;2.42;;;8.60;99.90;;;;;;5066263;28;25117;-71
2021/10/22 03:22:22;;;;;;;14.02;3.05;;;8.70;99.90;;;;;;5067470;28;25074;-71
2021/10/22 03:24:47;;;;;;;16.98;3.45;;;8.80;99.90;;;;;;5065178;28;25102;-71
2021/10/22 03:27:15;;;;;;;12.82;3.42;;;8.80;99.90;;;;;;5064999;28;25078;-71
2021/10/22 03:29:41;;;;;;;14.88;3.28;;;8.80;99.90;;;;;;5068344;28;25058;-69
2021/10/22 03:32:07;;;;;;;23.13;3.92;;;8.90;99.90;;;;;;5062852;28;25160;-68
2021/10/22 03:34:33;;;;;;;16.45;2.63;;;8.90;99.90;;;;;;5060559;28;25084;-69
2021/10/22 03:36:59;;;;;;;20.95;2.83;;;9.00;99.90;;;;;;5065195;28;25080;-71
2021/10/22 03:39:25;;;;;;;11.57;3.13;;;9.10;99.90;;;;;;5066618;28;25152;-70
2021/10/22 03:41:50;;;;;;;17.05;2.92;;;9.20;99.90;;;;;;5063678;28;25097;-69
2021/10/22 03:44:16;;;;;;;15.55;4.38;;;9.20;99.90;;;;;;5064820;28;25166;-70
2021/10/22 03:46:41;;;;;;;17.85;2.97;;;9.30;99.90;;;;;;5065349;28;25080;-69
2021/10/22 03:49:07;;;;;;;15.88;2.40;;;9.20;99.90;;;;;;5066261;28;25058;-71
2021/10/22 03:51:33;;;;;;;13.73;2.40;;;9.20;99.90;;;;;;5063594;28;25070;-71
2021/10/22 03:53:59;;;;;;;14.73;3.38;;;9.20;99.90;;;;;;5059998;28;24827;-70
2021/10/22 03:56:25;;;;;;;20.10;2.88;;;9.30;99.90;;;;;;5063372;28;25130;-73
2021/10/22 03:58:51;;;;;;;13.32;2.58;;;9.30;99.90;;;;;;5066100;28;25146;-72
2021/10/22 04:01:17;;;;;;;8.25;2.50;;;9.30;99.90;;;;;;5066259;28;25066;-69
2021/10/22 04:03:43;;;;;;;17.17;3.22;;;9.30;99.90;;;;;;5069022;28;25060;-68
2021/10/22 04:06:09;;;;;;;15.32;2.58;;;9.30;99.90;;;;;;5060846;28;25183;-71
2021/10/22 04:08:34;;;;;;;13.60;3.17;;;9.40;99.90;;;;;;5063746;28;25126;-73
2021/10/22 04:11:00;;;;;;;18.85;2.92;;;9.40;99.90;;;;;;5063139;28;25115;-71
2021/10/22 04:13:26;;;;;;;13.05;2.90;;;9.40;99.90;;;;;;5078449;28;25056;-67
2021/10/22 04:15:52;;;;;;;13.38;2.78;;;9.50;99.90;;;;;;5076985;28;25108;-71
2021/10/22 04:18:18;;;;;;;12.60;2.63;;;9.50;99.90;;;;;;5063214;28;25082;-69
2021/10/22 04:20:43;;;;;;;16.13;3.25;;;9.60;99.90;;;;;;5064860;28;25045;-71
2021/10/22 04:23:09;;;;;;;15.23;2.75;;;9.50;99.90;;;;;;5063463;28;25112;-69
2021/10/22 04:25:36;;;;;;;11.27;3.15;;;9.50;99.90;;;;;;5044320;28;25069;-70
2021/10/22 04:28:03;;;;;;;16.40;3.08;;;9.50;99.90;;;;;;5070110;28;25136;-71
2021/10/22 04:30:29;;;;;;;14.32;3.33;;;9.50;99.90;;;;;;5059341;28;25081;-70
2021/10/22 04:32:55;;;;;;;16.15;3.38;;;9.40;99.90;;;;;;5067552;28;26161;-71
2021/10/22 04:35:20;;;;;;;15.43;3.22;;;9.40;99.90;;;;;;5060608;28;25127;-68
2021/10/22 04:37:59;;;;;;;21.20;4.03;;;9.40;99.90;;;;;;5058247;28;25103;-69
2021/10/22 04:40:33;;;;;;;13.18;3.53;;;9.40;99.90;;;;;;5064164;28;25103;-70
2021/10/22 04:43:03;;;;;;;17.77;3.00;;;9.30;99.90;;;;;;5061428;28;25110;-71
2021/10/22 04:45:37;;;;;;;11.15;2.42;;;9.30;99.90;;;;;;5062187;28;25117;-72
2021/10/22 04:48:04;;;;;;;14.48;2.90;;;9.30;99.90;;;;;;5064485;28;25088;-70
2021/10/22 04:50:31;;;;;;;17.42;3.03;;;9.30;99.90;;;;;;5062546;28;25050;-75
2021/10/22 04:52:57;;;;;;;16.58;3.35;;;9.30;99.90;;;;;;5056633;28;25095;-70
2021/10/22 04:55:24;;;;;;;18.98;3.17;;;9.30;99.90;;;;;;5057525;28;25095;-70
2021/10/22 04:57:51;;;;;;;13.38;3.42;;;9.30;99.90;;;;;;5049656;28;25048;-69
2021/10/22 05:00:19;;;;;;;13.15;2.47;;;9.30;99.90;;;;;;5058481;28;25066;-77
2021/10/22 05:02:45;;;;;;;13.63;3.10;;;9.40;99.90;;;;;;5066982;28;25059;-70
2021/10/22 05:05:11;;;;;;;13.32;2.75;;;9.40;99.90;;;;;;5058295;28;25075;-70
2021/10/22 05:07:37;;;;;;;15.88;2.78;;;9.40;99.90;;;;;;5064284;28;25069;-73
2021/10/22 05:10:04;;;;;;;10.65;2.63;;;9.50;99.90;;;;;;5061149;28;25063;-74
2021/10/22 05:12:29;;;;;;;14.45;3.03;;;9.50;99.90;;;;;;5062320;28;25116;-70
2021/10/22 05:14:55;;;;;;;15.40;2.20;;;9.50;99.90;;;;;;5045233;28;25092;-70
2021/10/22 05:17:22;;;;;;;18.13;2.85;;;9.60;99.90;;;;;;5062499;28;25122;-70
2021/10/22 05:19:48;;;;;;;20.27;3.83;;;9.50;99.90;;;;;;5063326;28;25058;-69
2021/10/22 05:22:14;;;;;;;11.77;2.55;;;9.50;99.90;;;;;;5044639;28;25063;-69
2021/10/22 05:24:39;;;;;;;16.58;3.47;;;9.50;99.90;;;;;;5063216;28;25084;-70
2021/10/22 05:27:05;;;;;;;16.80;3.10;;;9.50;99.90;;;;;;5060184;28;25150;-71
2021/10/22 05:29:31;;;;;;;11.82;3.88;;;9.50;99.90;;;;;;5060844;28;25059;-72
2021/10/22 05:31:56;;;;;;;18.48;3.88;;;9.40;99.90;;;;;;5069157;28;25060;-73
2021/10/22 05:34:22;;;;;;;13.43;2.97;;;9.50;99.90;;;;;;5060375;28;25169;-72
2021/10/22 05:36:52;;;;;;;10.43;2.63;;;9.50;99.90;;;;;;5065372;28;25067;-70
2021/10/22 05:39:19;;;;;;;14.90;2.88;;;9.50;99.90;;;;;;5067356;28;25078;-70
2021/10/22 05:41:47;;;;;;;18.42;2.97;;;9.40;99.90;;;;;;5069056;28;25147;-70
2021/10/22 05:44:14;;;;;;;16.60;2.70;;;9.40;99.90;;;;;;5052624;28;25127;-74
2021/10/22 05:46:40;;;;;;;12.68;2.22;;;9.40;99.90;;;;;;5043373;28;25150;-70
2021/10/22 05:49:05;;;;;;;17.92;2.85;;;9.50;99.90;;;;;;5071574;28;25184;-69
2021/10/22 05:51:31;;;;;;;15.38;2.63;;;9.50;99.90;;;;;;5054138;28;25108;-73
2021/10/22 05:53:57;;;;;;;12.68;2.70;;;9.50;99.90;;;;;;5049367;28;25091;-71
2021/10/22 05:56:23;;;;;;;13.88;2.42;;;9.50;99.90;;;;;;5050973;28;25112;-72
2021/10/22 05:58:48;;;;;;;17.25;3.17;;;9.50;99.90;;;;;;5071127;28;25092;-69
2021/10/22 06:01:14;;;;;;;15.10;2.40;;;9.60;99.90;;;;;;5066488;28;25162;-71
2021/10/22 06:03:40;;;;;;;13.15;2.85;;;9.60;99.90;;;;;;5064676;28;25139;-70
2021/10/22 06:06:06;;;;;;;8.75;2.20;;;9.60;99.90;;;;;;5046694;28;25063;-70
2021/10/22 06:08:32;;;;;;;9.23;2.30;;;9.60;99.90;;;;;;5066090;28;25130;-70
2021/10/22 06:10:58;;;;;;;9.75;2.20;;;9.70;99.90;;;;;;5076327;28;25061;-70
2021/10/22 06:13:23;;;;;;;10.20;2.85;;;9.70;99.90;;;;;;5069994;28;25140;-68
2021/10/22 06:15:49;;;;;;;9.52;2.47;;;9.80;99.90;;;;;;5065097;28;25060;-69
2021/10/22 06:18:17;;;;;;;14.70;2.47;;;9.80;99.90;;;;;;5075912;28;25145;-70
2021/10/22 06:20:55;;;;;;;11.50;2.95;;;9.80;99.90;;;;;;5070833;28;25065;-69
2021/10/22 06:26:05;;;;;;;12.27;2.35;;;9.80;99.90;;;;;;5068731;28;25120;-70
2021/10/22 06:28:31;;;;;;;12.65;2.33;;;9.90;99.90;;;;;;5066841;28;25086;-70
2021/10/22 06:30:58;;;;;;;20.20;3.22;;;9.90;99.90;;;;;;5070213;28;25142;-70
2021/10/22 06:33:23;;;;;;;17.90;2.95;;;10.00;99.90;;;;;;5059997;28;25101;-73
2021/10/22 06:35:50;;;;;;;15.90;3.55;;;10.00;99.90;;;;;;5061357;28;25062;-73
2021/10/22 06:38:16;;;;;;;13.45;3.20;;;10.00;99.90;;;;;;5064573;28;25136;-70
2021/10/22 06:40:42;;;;;;;13.57;2.97;;;10.00;99.90;;;;;;5067161;28;25101;-72
2021/10/22 06:43:09;;;;;;;12.75;2.38;;;10.00;99.90;;;;;;5046511;28;25135;-70
2021/10/22 06:45:34;;;;;;;13.43;3.08;;;10.00;99.90;;;;;;5047818;28;25087;-70
2021/10/22 06:48:00;;;;;;;21.10;4.72;;;10.10;99.90;;;;;;5068490;28;25114;-70
2021/10/22 06:50:26;;;;;;;16.70;3.35;;;10.10;99.90;;;;;;5065632;28;25076;-70
2021/10/22 06:52:51;;;;;;;13.15;2.17;;;10.10;99.90;;;;;;5070387;28;25053;-69
2021/10/22 06:55:17;;;;;;;14.48;2.65;;;10.20;99.90;;;;;;5067901;28;25080;-70
2021/10/22 06:57:43;;;;;;;17.38;3.83;;;10.20;99.90;;;;;;5073395;28;25155;-71
2021/10/22 07:00:10;;;;;;;13.73;2.13;;;10.20;99.90;;;;;;5069190;28;25135;-70
2021/10/22 07:02:57;;;;;;;10.02;2.22;;;10.30;99.90;;;;;;5083779;28;25067;-68
2021/10/22 07:08:23;;;;;;;13.35;2.53;;;10.30;99.90;;;;;;5011137;28;25155;-69
2021/10/22 07:10:49;;;;;;;14.98;3.33;;;10.30;99.90;;;;;;5047090;28;25129;-74
2021/10/22 07:13:15;;;;;;;13.20;3.20;;;10.30;99.90;;;;;;5061516;28;25100;-71
2021/10/22 07:15:41;;;;;;;10.27;2.70;;;10.30;99.90;;;;;;5067757;28;25095;-71
2021/10/22 07:18:06;;;;;;;13.90;2.28;;;10.30;99.90;;;;;;5069163;28;25063;-70
2021/10/22 07:20:34;;;;;;;11.10;2.60;;;10.30;99.90;;;;;;5056834;28;25110;-69
2021/10/22 07:23:08;;;;;;;9.35;2.42;;;10.40;99.90;;;;;;5061102;28;25067;-73
2021/10/22 07:25:38;;;;;;;11.65;2.60;;;10.30;99.90;;;;;;5068310;28;25049;-70
2021/10/22 07:28:10;;;;;;;11.82;1.92;;;10.40;99.90;;;;;;5048658;28;25144;-71
2021/10/22 07:30:36;;;;;;;19.67;3.28;;;10.40;99.90;;;;;;5045676;28;25071;-73
2021/10/22 07:33:02;;;;;;;15.55;2.90;;;10.50;99.90;;;;;;5077594;28;25057;-69
2021/10/22 07:35:28;;;;;;;8.00;2.15;;;10.40;99.90;;;;;;5070735;28;25050;-69
2021/10/22 07:37:54;;;;;;;12.52;2.45;;;10.40;99.90;;;;;;5065842;28;25061;-71
2021/10/22 07:40:20;;;;;;;10.20;2.78;;;10.40;99.90;;;;;;5070598;28;25153;-70
2021/10/22 07:42:45;;;;;;;14.23;3.58;;;10.40;99.90;;;;;;5062404;28;25165;-70
2021/10/22 07:45:11;;;;;;;16.02;2.45;;;10.40;99.90;;;;;;5048875;28;25065;-71
2021/10/22 07:47:37;;;;;;;17.83;3.22;;;10.40;99.90;;;;;;5067100;28;25139;-69
2021/10/22 07:50:08;;;;;;;14.15;3.28;;;10.40;99.90;;;;;;5066948;28;25092;-70
2021/10/22 07:52:35;;;;;;;11.80;2.13;;;10.50;99.90;;;;;;5067569;28;25097;-70
2021/10/22 07:55:02;;;;;;;14.02;2.33;;;10.50;99.90;;;;;;5070504;28;25075;-72
2021/10/22 07:57:28;;;;;;;13.15;2.55;;;10.50;99.90;;;;;;5054587;28;25076;-71
2021/10/22 07:59:56;;;;;;;17.17;2.72;;;10.40;99.90;;;;;;5065438;28;25178;-69
2021/10/22 08:02:22;;;;;;;16.70;2.60;;;10.40;99.90;;;;;;5069618;28;25114;-71
2021/10/22 08:04:49;;;;;;;18.67;2.78;;;10.50;99.90;;;;;;5067197;28;25059;-70
2021/10/22 08:07:17;;;;;;;12.32;3.40;;;10.50;99.90;;;;;;5065752;28;25060;-67
2021/10/22 08:09:44;;;;;;;20.88;2.80;;;10.60;99.90;;;;;;5043993;28;25075;-71
2021/10/22 08:12:15;;;;;;;14.95;3.30;;;10.60;99.90;;;;;;5044170;28;25124;-73
2021/10/22 08:14:46;;;;;;;13.55;2.83;;;10.70;99.90;;;;;;5064613;28;25078;-70
2021/10/22 08:17:13;;;;;;;19.75;3.17;;;10.70;99.90;;;;;;5064760;28;25103;-70
2021/10/22 08:19:40;;;;;;;19.77;3.45;;;10.70;99.90;;;;;;5047090;28;25102;-70
2021/10/22 08:24:32;;;;;;;12.57;2.65;;;10.80;99.90;;;;;;5065911;28;25102;-69
2021/10/22 08:27:01;;;;;;;23.10;3.00;;;10.80;99.90;;;;;;5068361;28;25073;-71
2021/10/22 08:29:27;;;;;;;13.13;3.63;;;10.90;99.90;;;;;;5062602;28;25116;-70
2021/10/22 08:31:54;;;;;;;20.67;3.13;;;11.00;99.90;;;;;;5047166;28;25076;-69
2021/10/22 08:34:20;;;;;;;18.92;3.28;;;10.90;99.90;;;;;;5074956;28;25067;-68
2021/10/22 08:36:46;;;;;;;15.18;2.80;;;11.00;99.90;;;;;;5070121;28;25156;-70
2021/10/22 08:39:12;;;;;;;19.80;3.10;;;11.00;99.90;;;;;;5057599;28;25080;-71
2021/10/22 08:41:39;;;;;;;16.70;2.97;;;11.00;99.90;;;;;;5066777;28;25166;-72
2021/10/22 08:44:05;;;;;;;11.65;2.78;;;11.00;99.90;;;;;;5065800;28;25060;-72
2021/10/22 08:46:36;;;;;;;22.13;3.80;;;11.00;99.90;;;;;;5065012;28;25085;-71
2021/10/22 08:49:02;;;;;;;18.98;3.28;;;11.10;99.90;;;;;;5063535;28;25105;-71
2021/10/22 08:51:28;;;;;;;18.45;3.28;;;11.10;99.90;;;;;;5063598;28;25084;-70
2021/10/22 08:53:54;;;;;;;15.30;3.17;;;11.10;99.90;;;;;;5064945;28;25046;-71
2021/10/22 08:56:20;;;;;;;20.15;2.72;;;11.20;99.90;;;;;;5045552;28;25155;-70
2021/10/22 08:58:46;;;;;;;14.85;3.10;;;11.30;99.90;;;;;;5067689;28;25053;-68
2021/10/22 09:01:14;;;;;;;23.70;4.63;;;11.20;99.90;;;;;;5067305;28;25104;-71
2021/10/22 09:03:40;;;;;;;16.98;2.97;;;11.30;99.90;;;;;;5066428;28;25102;-70
2021/10/22 09:06:13;;;;;;;14.38;2.67;;;11.40;99.90;;;;;;5066081;28;25084;-69
2021/10/22 09:08:41;;;;;;;18.52;3.15;;;11.40;99.90;;;;;;5063298;28;25065;-70
2021/10/22 09:11:20;;;;;;;12.90;2.80;;;11.40;99.90;;;;;;5071368;28;25052;-72
2021/10/22 09:14:03;;;;;;;11.98;3.15;;;11.40;99.90;;;;;;5047440;28;25079;-69
2021/10/22 09:16:29;;;;;;;11.00;2.55;;;11.30;99.90;;;;;;5065709;28;25159;-70
2021/10/22 09:18:55;;;;;;;19.60;3.38;;;11.30;99.90;;;;;;5052635;28;25062;-72
2021/10/22 09:21:27;;;;;;;14.18;2.88;;;11.30;99.90;;;;;;5066658;28;25062;-69
2021/10/22 09:24:18;;;;;;;15.40;2.70;;;11.40;99.90;;;;;;5066710;28;25090;-70
2021/10/22 09:26:56;;;;;;;17.00;2.97;;;11.40;99.90;;;;;;5042875;28;25072;-70
2021/10/22 09:29:27;;;;;;;11.43;2.35;;;11.50;99.90;;;;;;5066408;28;25076;-71
2021/10/22 09:31:56;;;;;;;12.18;3.05;;;11.50;99.90;;;;;;5066576;28;25072;-71
2021/10/22 09:34:34;;;;;;;15.23;2.65;;;11.50;99.90;;;;;;5072881;28;25099;-72
2021/10/22 09:37:17;;;;;;;18.42;3.28;;;11.40;99.90;;;;;;5063836;28;25071;-70
2021/10/22 09:39:43;;;;;;;15.82;2.78;;;11.30;99.90;;;;;;5063059;28;25069;-70
2021/10/22 09:42:12;;;;;;;15.63;3.95;;;11.20;99.90;;;;;;5063537;28;25045;-69
2021/10/22 09:44:41;;;;;;;18.23;2.85;;;11.10;99.90;;;;;;5071820;28;25049;-74
2021/10/22 09:47:06;;;;;;;21.05;3.95;;;11.10;99.90;;;;;;5063554;28;25120;-71
2021/10/22 09:49:37;;;;;;;17.20;3.33;;;11.10;99.90;;;;;;5063879;28;25101;-72
2021/10/22 09:52:24;;;;;;;15.38;3.40;;;11.10;99.90;;;;;;5067336;28;25096;-75
2021/10/22 09:55:15;;;;;;;15.95;2.85;;;11.10;99.90;;;;;;5044690;28;25066;-70
2021/10/22 09:57:44;;;;;;;17.95;3.65;;;11.20;99.90;;;;;;5039188;28;25097;-71
2021/10/22 10:00:19;;;;;;;14.75;2.95;;;11.30;99.90;;;;;;5063205;28;25064;-70
2021/10/22 10:02:45;;;;;;;27.83;3.80;;;11.30;99.90;;;;;;5066252;28;25070;-70
2021/10/22 10:05:12;;;;;;;15.73;3.53;;;11.20;99.90;;;;;;5047306;28;25068;-71
2021/10/22 10:07:39;;;;;;;9.88;2.72;;;11.20;99.90;;;;;;5062093;28;25090;-69
2021/10/22 10:10:06;;;;;;;16.85;4.45;;;11.30;99.90;;;;;;5057685;28;25049;-69
2021/10/22 10:12:35;;;;;;;17.55;3.10;;;11.30;99.90;;;;;;5065378;28;25090;-73
2021/10/22 10:15:02;;;;;;;15.90;3.13;;;11.40;99.90;;;;;;5056436;28;25062;-73
2021/10/22 10:17:29;;;;;;;16.98;3.63;;;11.40;99.90;;;;;;5065356;28;25073;-70
2021/10/22 10:19:56;;;;;;;16.75;3.22;;;11.40;99.90;;;;;;5065376;28;25085;-70
2021/10/22 10:22:27;;;;;;;16.00;3.17;;;11.40;99.90;;;;;;5061477;28;25108;-69
2021/10/22 10:24:58;;;;;;;15.90;3.10;;;11.50;99.90;;;;;;5047647;28;25095;-71
2021/10/22 10:27:26;;;;;;;14.80;2.63;;;11.50;99.90;;;;;;5061127;28;25130;-71
2021/10/22 10:29:58;;;;;;;15.93;3.08;;;11.60;99.90;;;;;;5059810;28;25112;-70
2021/10/22 10:32:27;;;;;;;14.52;3.33;;;11.60;99.90;;;;;;5065484;28;25151;-70
2021/10/22 10:34:54;;;;;;;25.50;3.45;;;11.60;99.90;;;;;;5067791;28;25135;-70
2021/10/22 10:37:32;;;;;;;12.20;2.80;;;11.60;99.90;;;;;;5059409;28;25101;-71
2021/10/22 10:40:12;;;;;;;14.05;3.58;;;11.70;99.90;;;;;;5073795;28;25089;-73
2021/10/22 10:42:48;;;;;;;7.25;2.40;;;11.90;99.90;;;;;;5060266;28;25078;-73
2021/10/22 10:45:24;;;;;;;10.07;2.53;;;12.00;99.90;;;;;;5047126;28;25053;-72
2021/10/22 10:47:54;;;;;;;14.40;2.92;;;12.10;99.90;;;;;;5065736;28;25133;-71
2021/10/22 10:50:52;;;;;;;17.83;4.03;;;12.20;99.90;;;;;;5062705;28;25158;-72
2021/10/22 10:53:35;;;;;;;15.38;2.28;;;12.20;99.90;;;;;;5065474;28;25142;-72
2021/10/22 10:56:03;;;;;;;9.90;2.45;;;12.40;99.90;;;;;;5067150;28;25132;-72
2021/10/22 10:58:39;;;;;;;11.18;2.53;;;12.40;99.90;;;;;;5067264;28;25049;-70
2021/10/22 11:01:20;;;;;;;17.00;2.60;;;12.50;99.90;;;;;;5065446;28;25061;-72
2021/10/22 11:03:47;;;;;;;11.05;2.80;;;12.40;99.90;;;;;;5066754;28;25058;-70
2021/10/22 11:06:37;;;;;;;11.73;2.47;;;12.20;99.90;;;;;;5066197;28;25067;-70
2021/10/22 11:09:04;;;;;;;17.83;2.72;;;12.20;99.90;;;;;;5064449;28;25063;-70
2021/10/22 11:11:33;;;;;;;12.95;2.88;;;12.30;99.90;;;;;;5064743;28;25103;-69
2021/10/22 11:14:05;;;;;;;19.85;3.83;;;12.40;99.90;;;;;;5064608;28;25057;-76
2021/10/22 11:16:46;;;;;;;9.33;2.60;;;12.70;99.90;;;;;;5064273;28;25082;-75
2021/10/22 11:19:14;;;;;;;11.70;3.03;;;12.70;99.90;;;;;;5063690;28;25057;-70
2021/10/22 11:21:58;;;;;;;17.27;2.85;;;12.70;99.90;;;;;;5062302;28;25138;-72
2021/10/22 11:24:28;;;;;;;16.90;2.33;;;12.70;99.90;;;;;;5055383;28;25120;-71
2021/10/22 11:26:59;;;;;;;14.68;2.75;;;12.60;99.90;;;;;;5065395;28;25062;-72
2021/10/22 11:29:26;;;;;;;16.02;3.17;;;12.50;99.90;;;;;;5065854;28;25053;-71
2021/10/22 11:31:56;;;;;;;19.27;3.08;;;12.40;99.90;;;;;;5062662;28;25126;-72
2021/10/22 11:34:43;;;;;;;13.90;3.28;;;12.40;99.90;;;;;;5067133;28;25087;-71
2021/10/22 11:37:13;;;;;;;19.50;3.60;;;12.30;99.90;;;;;;5063572;28;25136;-71
2021/10/22 11:39:46;;;;;;;12.73;3.08;;;12.20;99.90;;;;;;5061410;28;25103;-71
2021/10/22 11:42:29;;;;;;;16.85;2.65;;;11.90;99.90;;;;;;5063735;28;25073;-74
2021/10/22 11:45:10;;;;;;;13.48;2.88;;;11.70;99.90;;;;;;5065733;28;25117;-70
2021/10/22 11:47:40;;;;;;;17.45;3.00;;;11.80;99.90;;;;;;5042587;28;25060;-69
2021/10/22 11:50:23;;;;;;;17.83;3.17;;;12.00;99.90;;;;;;5063723;28;25101;-75
2021/10/22 11:53:01;;;;;;;12.10;2.70;;;12.10;99.90;;;;;;5069190;28;25113;-70
2021/10/22 11:55:28;;;;;;;18.88;3.22;;;12.00;99.90;;;;;;5061865;28;25077;-70
2021/10/22 11:57:55;;;;;;;12.50;2.88;;;11.80;99.90;;;;;;5063168;28;25069;-76
2021/10/22 12:00:24;;;;;;;17.00;4.45;;;11.70;99.90;;;;;;5062405;28;25089;-72
2021/10/22 12:02:50;;;;;;;12.23;3.50;;;11.70;99.90;;;;;;5063685;28;25090;-76
2021/10/22 12:05:17;;;;;;;22.80;3.33;;;12.00;99.90;;;;;;5063785;28;25140;-74
2021/10/22 12:07:54;;;;;;;20.30;4.03;;;12.00;99.90;;;;;;5062412;28;25089;-72
2021/10/22 12:10:21;;;;;;;11.73;3.05;;;12.00;99.90;;;;;;5062516;28;25145;-71
2021/10/22 12:12:51;;;;;;;25.40;3.63;;;11.90;99.90;;;;;;5064159;28;25083;-75
2021/10/22 12:15:34;;;;;;;19.23;4.00;;;11.70;99.90;;;;;;5079082;28;25106;-73
2021/10/22 12:18:04;;;;;;;17.38;3.92;;;11.80;99.90;;;;;;5074649;28;25096;-72
2021/10/22 12:20:31;;;;;;;13.55;2.95;;;11.70;99.90;;;;;;5096488;28;25062;-70
2021/10/22 12:22:59;;;;;;;13.55;2.92;;;11.60;99.90;;;;;;5077335;28;25099;-74
2021/10/22 12:25:27;;;;;;;17.17;3.22;;;11.60;99.90;;;;;;5068025;28;25054;-72
2021/10/22 12:27:55;;;;;;;18.42;3.22;;;11.60;99.90;;;;;;5069179;28;25112;-76
2021/10/22 12:30:23;;;;;;;13.38;3.67;;;11.60;99.90;;;;;;5066759;28;25135;-71
2021/10/22 12:32:54;;;;;;;12.23;2.63;;;11.60;99.90;;;;;;5066880;28;25086;-70
2021/10/22 12:35:23;;;;;;;15.00;2.90;;;11.50;99.90;;;;;;5068550;28;25098;-69
2021/10/22 12:38:00;;;;;;;22.08;4.28;;;11.50;99.90;;;;;;5061857;28;25131;-71
2021/10/22 12:40:40;;;;;;;15.27;3.60;;;11.40;99.90;;;;;;5061978;28;25135;-73
2021/10/22 12:43:11;;;;;;;19.23;3.42;;;11.40;99.90;;;;;;5054833;28;25098;-70
2021/10/22 12:46:04;;;;;;;16.63;2.78;;;11.50;99.90;;;;;;5062182;28;25125;-70
2021/10/22 12:48:40;;;;;;;17.13;3.67;;;11.60;99.90;;;;;;5059413;28;25056;-71
2021/10/22 12:51:26;;;;;;;19.42;3.30;;;11.80;99.90;;;;;;5065856;28;25053;-70
2021/10/22 12:53:59;;;;;;;16.30;3.42;;;11.90;99.90;;;;;;5065024;28;25062;-71
2021/10/22 12:56:27;;;;;;;23.67;3.60;;;12.00;99.90;;;;;;5060308;28;25064;-69